Friday, February 27, 2015
00:31 UTC
  |  Log In   |  Register Free
Airport Search:

Gainesville Municipal Airport
(KGLE)

FAA data valid effective January 08, 2015 - March 05, 2015 (unless otherwise noted).

 
 
 
 
 
 
 
 
 
 
 
 
 
 

Current Aviation Weather for Gainesville Municipal Airport (KGLE)

The most recent METAR observation for KGLE was updated at: 0014
METAR Summary (Translated METAR)
KGLE
262355Z AUTO 01010G14KT 10SM OVC085 00/M11 A3037 RMK AO2 T00031108 10024 20000
KGYI
262355Z AUTO 02013G17KT 10SM SCT080 OVC090 01/M06 A3035 RMK AO2 T00111065 10032 20011
(26.4 nm NE from KGLE)
KDTO
262353Z 01014G20KT 10SM OVC075 02/M08 A3033 RMK AO2 SLP274 T00171083 10028 20006 53011
(27 nm SW from KGLE)
TAF
No TAF information found within 50 nm of KGLE
  Airport Weather Conditions for KGLE

 Current Weather at GLE
33° F
Overcast
North winds at 13.8 mph
GLE NOAA Radar

Pressure: 30.36 in
Humidity: 44%
Wind: from the North at 13.8 gusting to 18.4 MPH (12 gusting to 16 KT)
Dew Point: 12.7°F
Visibility: 10.00 mi


Airport Weather Forecast for KGLE

Translated METAR and TAF for KGLE
Translated METAR for KGLE (0031 UTC 27 February 2015)
found at http://aviationweather.gov/adds/metars/
 
METAR text: KGLE 270015Z AUTO 01010G19KT 10SM OVC085 00/M11 A3036 RMK AO2 T00011112
Conditions at: KGLE (GAINESVILLE , TX, US) observed 0015 UTC 27 February 2015
Temperature: 0.1°C (32°F)
Dewpoint: -11.2°C (12°F) [RH = 42%]
Pressure (altimeter): 30.36 inches Hg (1028.2 mb)
Winds: from the N (10 degrees) at 12 MPH (10 knots; 5.2 m/s)
gusting to 22 MPH (19 knots; 9.9 m/s)
Visibility: 10 or more miles (16+ km)
Ceiling: 8500 feet AGL
Clouds: overcast cloud deck at 8500 feet AGL
Weather: automated observation with no human augmentation;
there may or may not be significant weather present at this time
Translated TAF for KGLE

There is no translated TAF available for this airport

Find All Airport Services Find A Hotel Find A Rental Car Find A Golf Course Find A Restaurant $100 Hamburger



FBO's on the Field
FBO Company Facility Photos Services Transportation Aviation Fuel Prices: Prices include tax
Catering Weather Repair Courtesy Rental Type 100LL JetA JetA+ MOGAS 8087
 
City of Gainesville Municipal Airport

This FBO has not yet been rated
FS:Phillips 66
Last Updated: Feb-18
Login to update fuel prices
SS:
Contact City of Gainesville Municipal AirportMore FBO Information
 
Add another FBO Facility Photos Catering Weather Repair Courtesy Rental Type 100LL JetA JetA+ MOGAS 8087
Services Transportation Aviation Fuel Prices: Prices include tax


model-print
model-print
model-print
model-print